Time,TemperatureF,DewpointF,PressureIn,WindDirection,WindDirectionDegrees,WindSpeedMPH,WindSpeedGustMPH,Humidity,HourlyPrecipIn,Conditions,Clouds,dailyrainin,SoftwareType,DateUTC
2013-02-26 00:07:00,32.9,24.0,30.31,SE,133,0.0,1.0,70,0.00,,,0.00,weatherlink.com 1.10,2013-02-26 05:07:00,
2013-02-26 00:22:00,33.0,24.0,30.33,SSE,163,0.0,1.0,70,0.00,,,0.00,weatherlink.com 1.10,2013-02-26 05:22:00,
2013-02-26 00:37:00,33.2,24.0,30.33,ESE,120,0.0,1.0,70,0.00,,,0.00,weatherlink.com 1.10,2013-02-26 05:37:00,
2013-02-26 00:52:00,32.9,24.0,30.33,ESE,111,1.0,1.0,70,0.00,,,0.00,weatherlink.com 1.10,2013-02-26 05:52:00,
2013-02-26 01:07:00,32.7,24.0,30.33,ESE,119,0.0,1.0,71,0.00,,,0.00,weatherlink.com 1.10,2013-02-26 06:07:00,
2013-02-26 01:22:00,32.5,24.0,30.32,SE,132,0.0,1.0,72,0.00,,,0.00,weatherlink.com 1.10,2013-02-26 06:22:00,
2013-02-26 01:37:00,32.3,24.0,30.32,SE,132,0.0,1.0,72,0.00,,,0.00,weatherlink.com 1.10,2013-02-26 06:37:00,
2013-02-26 01:52:00,32.4,25.0,30.33,South,170,0.0,1.0,73,0.00,,,0.00,weatherlink.com 1.10,2013-02-26 06:52:00,
2013-02-26 02:07:00,32.3,25.0,30.32,SE,124,0.0,1.0,73,0.00,,,0.00,weatherlink.com 1.10,2013-02-26 07:07:00,
2013-02-26 02:22:00,31.6,24.0,30.32,SE,134,0.0,1.0,74,0.00,,,0.00,weatherlink.com 1.10,2013-02-26 07:22:00,
2013-02-26 02:37:00,31.6,24.0,30.32,SSE,162,1.0,1.0,74,0.00,,,0.00,weatherlink.com 1.10,2013-02-26 07:37:00,
2013-02-26 02:52:00,32.0,25.0,30.33,SE,146,1.0,1.0,74,0.00,,,0.00,weatherlink.com 1.10,2013-02-26 07:52:00,
2013-02-26 03:07:00,32.1,25.0,30.32,ESE,121,0.0,2.0,74,0.00,,,0.00,weatherlink.com 1.10,2013-02-26 08:07:00,
2013-02-26 03:22:00,32.2,25.0,30.32,ESE,115,0.0,1.0,74,0.00,,,0.00,weatherlink.com 1.10,2013-02-26 08:22:00,
2013-02-26 03:37:00,32.3,25.0,30.32,ESE,122,0.0,1.0,75,0.00,,,0.00,weatherlink.com 1.10,2013-02-26 08:37:00,
2013-02-26 03:52:00,32.0,25.0,30.30,ESE,103,0.0,1.0,75,0.00,,,0.00,weatherlink.com 1.10,2013-02-26 08:52:00,
2013-02-26 04:07:00,31.5,24.0,30.30,SE,125,0.0,1.0,75,0.00,,,0.00,weatherlink.com 1.10,2013-02-26 09:07:00,
2013-02-26 04:22:00,31.6,25.0,30.31,SE,125,0.0,1.0,76,0.00,,,0.00,weatherlink.com 1.10,2013-02-26 09:22:00,
2013-02-26 04:37:00,31.5,25.0,30.30,ESE,112,0.0,0.0,76,0.00,,,0.00,weatherlink.com 1.10,2013-02-26 09:37:00,
2013-02-26 04:52:00,31.3,25.0,30.30,SE,125,0.0,1.0,77,0.00,,,0.00,weatherlink.com 1.10,2013-02-26 09:52:00,
2013-02-26 05:07:00,31.3,25.0,30.29,SE,146,0.0,1.0,77,0.00,,,0.00,weatherlink.com 1.10,2013-02-26 10:07:00,
2013-02-26 05:22:00,31.5,25.0,30.29,ESE,122,1.0,2.0,77,0.00,,,0.00,weatherlink.com 1.10,2013-02-26 10:22:00,
2013-02-26 05:38:00,31.3,25.0,30.29,SE,129,0.0,1.0,78,0.00,,,0.00,weatherlink.com 1.10,2013-02-26 10:38:00,
2013-02-26 05:53:00,31.1,25.0,30.29,ESE,120,0.0,1.0,78,0.00,,,0.00,weatherlink.com 1.10,2013-02-26 10:53:00,
2013-02-26 06:08:00,30.9,25.0,30.29,ESE,120,0.0,1.0,79,0.00,,,0.00,weatherlink.com 1.10,2013-02-26 11:08:00,
2013-02-26 06:23:00,30.7,25.0,30.29,SSE,149,0.0,0.0,79,0.00,,,0.00,weatherlink.com 1.10,2013-02-26 11:23:00,
2013-02-26 06:38:00,30.9,25.0,30.30,ESE,120,0.0,1.0,79,0.00,,,0.00,weatherlink.com 1.10,2013-02-26 11:38:00,
2013-02-26 06:53:00,30.8,25.0,30.30,ESE,117,0.0,1.0,79,0.00,,,0.00,weatherlink.com 1.10,2013-02-26 11:53:00,
2013-02-26 07:09:00,30.8,25.0,30.31,SE,132,0.0,1.0,79,0.00,,,0.00,weatherlink.com 1.10,2013-02-26 12:09:00,
2013-02-26 07:23:00,30.8,25.0,30.31,ESE,123,0.0,1.0,80,0.00,,,0.00,weatherlink.com 1.10,2013-02-26 12:23:00,
2013-02-26 07:38:00,30.7,25.0,30.31,SE,137,0.0,1.0,80,0.00,,,0.00,weatherlink.com 1.10,2013-02-26 12:38:00,
2013-02-26 07:53:00,31.0,26.0,30.31,SE,128,0.0,1.0,80,0.00,,,0.00,weatherlink.com 1.10,2013-02-26 12:53:00,
2013-02-26 08:08:00,31.3,26.0,30.32,ESE,119,0.0,1.0,80,0.00,,,0.00,weatherlink.com 1.10,2013-02-26 13:08:00,
2013-02-26 08:23:00,31.4,26.0,30.32,ESE,115,0.0,1.0,80,0.00,,,0.00,weatherlink.com 1.10,2013-02-26 13:23:00,
2013-02-26 08:38:00,31.4,26.0,30.32,ESE,118,0.0,1.0,80,0.00,,,0.00,weatherlink.com 1.10,2013-02-26 13:38:00,
2013-02-26 08:54:00,31.8,26.0,30.31,ESE,105,0.0,2.0,80,0.00,,,0.00,weatherlink.com 1.10,2013-02-26 13:54:00,
2013-02-26 09:23:00,32.8,27.0,30.32,SSE,163,0.0,2.0,80,0.00,,,0.00,weatherlink.com 1.10,2013-02-26 14:23:00,
2013-02-26 09:38:00,33.4,27.0,30.32,ESE,115,1.0,3.0,78,0.00,,,0.00,weatherlink.com 1.10,2013-02-26 14:38:00,
2013-02-26 09:53:00,33.8,27.0,30.32,ESE,105,1.0,4.0,77,0.00,,,0.00,weatherlink.com 1.10,2013-02-26 14:53:00,
2013-02-26 10:08:00,34.9,28.0,30.31,ESE,119,3.0,7.0,75,0.00,,,0.00,weatherlink.com 1.10,2013-02-26 15:08:00,
2013-02-26 10:23:00,35.6,28.0,30.31,ESE,123,4.0,5.0,75,0.00,,,0.00,weatherlink.com 1.10,2013-02-26 15:23:00,
2013-02-26 10:38:00,36.8,29.0,30.29,East,86,3.0,5.0,72,0.00,,,0.00,weatherlink.com 1.10,2013-02-26 15:38:00,
2013-02-26 10:53:00,37.1,29.0,30.29,East,86,1.0,6.0,73,0.00,,,0.00,weatherlink.com 1.10,2013-02-26 15:53:00,
2013-02-26 11:08:00,38.5,29.0,30.28,East,88,1.0,7.0,70,0.00,,,0.00,weatherlink.com 1.10,2013-02-26 16:08:00,
2013-02-26 11:23:00,39.3,29.0,30.28,ESE,121,11.0,11.0,68,0.00,,,0.00,weatherlink.com 1.10,2013-02-26 16:23:00,
2013-02-26 11:38:00,39.3,30.0,30.28,East,92,3.0,8.0,69,0.00,,,0.00,weatherlink.com 1.10,2013-02-26 16:38:00,
2013-02-26 11:53:00,39.6,30.0,30.28,ESE,121,4.0,9.0,69,0.00,,,0.00,weatherlink.com 1.10,2013-02-26 16:53:00,
2013-02-26 12:08:00,40.1,30.0,30.28,ESE,103,4.0,6.0,68,0.00,,,0.00,weatherlink.com 1.10,2013-02-26 17:08:00,
2013-02-26 12:23:00,39.9,30.0,30.27,East,100,2.0,7.0,69,0.00,,,0.00,weatherlink.com 1.10,2013-02-26 17:23:00,
2013-02-26 12:38:00,39.5,30.0,30.25,ESE,109,4.0,8.0,70,0.00,,,0.00,weatherlink.com 1.10,2013-02-26 17:38:00,
2013-02-26 12:53:00,39.8,31.0,30.24,East,83,2.0,8.0,70,0.00,,,0.00,weatherlink.com 1.10,2013-02-26 17:53:00,
2013-02-26 13:08:00,39.8,31.0,30.24,East,98,2.0,7.0,70,0.00,,,0.00,weatherlink.com 1.10,2013-02-26 18:08:00,
2013-02-26 13:23:00,40.0,31.0,30.24,ESE,105,3.0,7.0,70,0.00,,,0.00,weatherlink.com 1.10,2013-02-26 18:23:00,
2013-02-26 13:38:00,40.1,31.0,30.23,ESE,102,4.0,6.0,71,0.00,,,0.00,weatherlink.com 1.10,2013-02-26 18:38:00,
2013-02-26 13:54:00,40.1,31.0,30.22,ESE,105,2.0,7.0,70,0.00,,,0.00,weatherlink.com 1.10,2013-02-26 18:54:00,
2013-02-26 14:09:00,40.3,32.0,30.20,East,98,2.0,5.0,72,0.00,,,0.00,weatherlink.com 1.10,2013-02-26 19:09:00,
2013-02-26 14:24:00,40.4,32.0,30.20,ESE,111,2.0,8.0,72,0.00,,,0.00,weatherlink.com 1.10,2013-02-26 19:24:00,
2013-02-26 14:39:00,40.4,32.0,30.18,ESE,117,2.0,8.0,72,0.00,,,0.00,weatherlink.com 1.10,2013-02-26 19:39:00,
2013-02-26 14:54:00,40.3,32.0,30.17,East,97,2.0,9.0,72,0.00,,,0.00,weatherlink.com 1.10,2013-02-26 19:54:00,
2013-02-26 15:09:00,40.2,32.0,30.17,ESE,111,1.0,9.0,73,0.00,,,0.00,weatherlink.com 1.10,2013-02-26 20:09:00,
2013-02-26 15:24:00,40.1,32.0,30.16,ESE,121,2.0,8.0,73,0.00,,,0.00,weatherlink.com 1.10,2013-02-26 20:24:00,
2013-02-26 15:39:00,39.9,33.0,30.15,East,84,5.0,10.0,75,0.00,,,0.00,weatherlink.com 1.10,2013-02-26 20:39:00,
2013-02-26 15:54:00,38.9,33.0,30.15,ESE,105,2.0,11.0,80,0.00,,,0.00,weatherlink.com 1.10,2013-02-26 20:54:00,
2013-02-26 16:09:00,38.5,33.0,30.13,East,92,2.0,8.0,81,0.00,,,0.00,weatherlink.com 1.10,2013-02-26 21:09:00,
2013-02-26 16:24:00,38.0,33.0,30.12,East,93,1.0,5.0,83,0.00,,,0.00,weatherlink.com 1.10,2013-02-26 21:24:00,
2013-02-26 16:39:00,37.6,33.0,30.10,East,88,3.0,7.0,84,0.00,,,0.00,weatherlink.com 1.10,2013-02-26 21:39:00,
2013-02-26 16:54:00,37.7,33.0,30.10,ESE,115,4.0,8.0,83,0.01,,,0.01,weatherlink.com 1.10,2013-02-26 21:54:00,
2013-02-26 17:09:00,37.9,33.0,30.10,ESE,102,2.0,8.0,81,0.01,,,0.01,weatherlink.com 1.10,2013-02-26 22:09:00,
2013-02-26 17:24:00,38.0,33.0,30.09,East,89,5.0,9.0,81,0.01,,,0.01,weatherlink.com 1.10,2013-02-26 22:24:00,
2013-02-26 17:39:00,37.9,33.0,30.09,East,93,3.0,9.0,82,0.01,,,0.01,weatherlink.com 1.10,2013-02-26 22:39:00,
2013-02-26 17:54:00,37.5,33.0,30.06,East,88,5.0,7.0,83,0.00,,,0.01,weatherlink.com 1.10,2013-02-26 22:54:00,
2013-02-26 18:09:00,37.3,33.0,30.04,East,99,2.0,8.0,85,0.00,,,0.01,weatherlink.com 1.10,2013-02-26 23:09:00,
2013-02-26 18:24:00,36.9,33.0,30.03,East,101,6.0,9.0,87,0.00,,,0.01,weatherlink.com 1.10,2013-02-26 23:24:00,
2013-02-26 18:39:00,36.8,34.0,30.02,East,87,5.0,9.0,88,0.00,,,0.01,weatherlink.com 1.10,2013-02-26 23:39:00,
2013-02-26 18:54:00,36.6,34.0,30.01,ESE,117,8.0,10.0,89,0.00,,,0.01,weatherlink.com 1.10,2013-02-26 23:54:00,
2013-02-26 19:09:00,36.5,34.0,30.00,East,91,2.0,13.0,90,0.00,,,0.01,weatherlink.com 1.10,2013-02-27 00:09:00,
2013-02-26 19:24:00,36.2,34.0,29.99,East,100,2.0,8.0,92,0.00,,,0.01,weatherlink.com 1.10,2013-02-27 00:24:00,
2013-02-26 19:39:00,36.1,34.0,29.96,ESE,117,5.0,15.0,92,0.00,,,0.01,weatherlink.com 1.10,2013-02-27 00:39:00,
2013-02-26 19:54:00,35.9,34.0,29.96,SE,128,3.0,13.0,93,0.00,,,0.01,weatherlink.com 1.10,2013-02-27 00:54:00,
2013-02-26 20:09:00,35.7,34.0,29.96,ESE,107,4.0,13.0,93,0.01,,,0.02,weatherlink.com 1.10,2013-02-27 01:09:00,
2013-02-26 20:24:00,35.5,34.0,29.95,East,100,8.0,10.0,94,0.01,,,0.02,weatherlink.com 1.10,2013-02-27 01:24:00,
2013-02-26 20:39:00,35.3,34.0,29.93,East,92,9.0,10.0,95,0.03,,,0.04,weatherlink.com 1.10,2013-02-27 01:39:00,
2013-02-26 20:55:00,35.0,34.0,29.92,ESE,104,4.0,10.0,95,0.05,,,0.06,weatherlink.com 1.10,2013-02-27 01:55:00,
2013-02-26 21:10:00,35.0,34.0,29.92,ESE,108,5.0,11.0,96,0.05,,,0.07,weatherlink.com 1.10,2013-02-27 02:10:00,
2013-02-26 21:25:00,35.0,34.0,29.90,ESE,108,3.0,11.0,96,0.06,,,0.08,weatherlink.com 1.10,2013-02-27 02:25:00,
2013-02-26 21:40:00,35.0,34.0,29.90,ESE,115,7.0,9.0,96,0.06,,,0.10,weatherlink.com 1.10,2013-02-27 02:40:00,
2013-02-26 21:55:00,35.1,34.0,29.88,East,101,6.0,9.0,96,0.09,,,0.15,weatherlink.com 1.10,2013-02-27 02:55:00,
2013-02-26 22:10:00,35.1,34.0,29.88,East,93,3.0,13.0,96,0.11,,,0.18,weatherlink.com 1.10,2013-02-27 03:10:00,
2013-02-26 22:25:00,35.2,35.0,29.87,NE,44,3.0,10.0,97,0.12,,,0.20,weatherlink.com 1.10,2013-02-27 03:25:00,
2013-02-26 22:40:00,35.0,34.0,29.85,East,94,3.0,10.0,97,0.14,,,0.24,weatherlink.com 1.10,2013-02-27 03:40:00,
2013-02-26 22:55:00,34.9,34.0,29.84,ESE,109,4.0,9.0,97,0.10,,,0.25,weatherlink.com 1.10,2013-02-27 03:55:00,
2013-02-26 23:10:00,34.9,34.0,29.84,SE,126,2.0,10.0,97,0.11,,,0.29,weatherlink.com 1.10,2013-02-27 04:10:00,
2013-02-26 23:25:00,34.8,34.0,29.85,East,91,9.0,9.0,97,0.11,,,0.31,weatherlink.com 1.10,2013-02-27 04:25:00,
2013-02-26 23:40:00,34.8,34.0,29.84,East,92,6.0,9.0,97,0.08,,,0.32,weatherlink.com 1.10,2013-02-27 04:40:00,
2013-02-26 23:55:00,34.9,34.0,29.82,ENE,57,2.0,9.0,97,0.07,,,0.33,weatherlink.com 1.10,2013-02-27 04:55:00,